createdAt,value
2019-01-03T00:00:46.616Z,29.5
2019-01-03T00:01:36.938Z,29.6
2019-01-03T00:02:25.944Z,29.5
2019-01-03T00:03:17.039Z,29.5
2019-01-03T00:04:06.323Z,29.5
2019-01-03T00:04:56.695Z,29.5
2019-01-03T00:05:47.478Z,29.5
2019-01-03T00:06:36.768Z,29.5
2019-01-03T00:07:27.076Z,29.5
2019-01-03T00:08:16.858Z,29.5
2019-01-03T00:09:06.423Z,29.5
2019-01-03T00:09:56.990Z,29.5
2019-01-03T00:10:47.070Z,29.5
2019-01-03T00:11:36.820Z,29.5
2019-01-03T00:12:27.463Z,29.4
2019-01-03T00:13:16.950Z,29.4
2019-01-03T00:14:07.492Z,29.4
2019-01-03T00:14:57.337Z,29.4
2019-01-03T00:33:13.529Z,29.4
2019-01-03T00:34:02.842Z,29.4
2019-01-03T00:34:54.206Z,29.4
2019-01-03T00:35:43.401Z,29.4
2019-01-03T00:36:32.816Z,29.4
2019-01-03T00:37:23.329Z,29.4
2019-01-03T00:38:14.184Z,29.3
2019-01-03T00:39:02.911Z,29.4
2019-01-03T00:39:54.283Z,29.3
2019-01-03T00:40:43.626Z,29.4
2019-01-03T00:41:34.100Z,29.3
2019-01-03T00:42:23.686Z,29.3
2019-01-03T00:43:14.283Z,29.3
2019-01-03T00:44:03.046Z,29.3
2019-01-03T00:44:53.668Z,29.3
2019-01-03T00:45:43.706Z,29.3
2019-01-03T00:46:34.004Z,29.3
2019-01-03T00:47:23.522Z,29.3
2019-01-03T00:48:14.705Z,29.3
2019-01-03T00:49:03.885Z,29.3
2019-01-03T00:49:53.735Z,29.3
2019-01-03T00:50:43.700Z,29.3
2019-01-03T00:51:34.007Z,29.3
2019-01-03T00:52:24.318Z,29.3
2019-01-03T00:53:14.300Z,29.3
2019-01-03T00:54:04.030Z,29.3
2019-01-03T00:54:55.085Z,29.3
2019-01-03T00:55:44.584Z,29.3
2019-01-03T00:56:35.190Z,29.3
2019-01-03T00:57:24.503Z,29.3
2019-01-03T00:58:15.570Z,29.3
2019-01-03T00:59:04.539Z,29.3
2019-01-03T00:59:54.314Z,29.3
2019-01-03T01:00:44.782Z,29.3
2019-01-03T01:01:34.806Z,29.3
2019-01-03T01:02:25.359Z,29.3
2019-01-03T01:03:13.851Z,29.3
2019-01-03T01:04:03.857Z,29.3
2019-01-03T01:04:54.169Z,29.3
2019-01-03T01:05:44.799Z,29.3
2019-01-03T01:06:35.577Z,29.3
2019-01-03T01:07:25.737Z,29.3
2019-01-03T01:08:14.953Z,29.3
2019-01-03T01:09:05.036Z,29.2
2019-01-03T01:09:55.049Z,29.2
2019-01-03T01:10:45.083Z,29.2
2019-01-03T01:11:35.266Z,29.2
2019-01-03T01:12:26.811Z,29.2
2019-01-03T01:13:15.804Z,29.2
2019-01-03T01:14:05.094Z,29.2
2019-01-03T01:14:55.683Z,29.2
2019-01-03T01:15:45.200Z,29.2
2019-01-03T01:16:36.764Z,29.2
2019-01-03T01:17:26.351Z,29.2
2019-01-03T01:18:15.036Z,29.2
2019-01-03T01:19:06.508Z,29.2
2019-01-03T01:19:56.519Z,29.2
2019-01-03T01:20:46.288Z,29.1
2019-01-03T01:21:35.808Z,29.1
2019-01-03T01:22:26.655Z,29.1
2019-01-03T01:23:16.763Z,29.1
2019-01-03T01:24:05.973Z,29.1
2019-01-03T01:24:56.123Z,29.1
2019-01-03T01:25:46.903Z,29.1
2019-01-03T01:26:36.996Z,29.1
2019-01-03T01:27:27.730Z,29.1
2019-01-03T01:28:16.538Z,29.1
2019-01-03T01:29:06.852Z,29.1
2019-01-03T01:29:57.488Z,29.1
2019-01-03T01:30:47.777Z,29.1
2019-01-03T01:31:37.564Z,29.1
2019-01-03T01:32:27.405Z,29.1
2019-01-03T01:33:16.880Z,29.1
2019-01-03T01:34:07.758Z,29.1
2019-01-03T01:34:57.557Z,29.1
2019-01-03T01:35:47.648Z,29.1
2019-01-03T01:36:37.662Z,29.1
2019-01-03T01:37:28.047Z,29.1
2019-01-03T01:38:16.927Z,29.1
2019-01-03T01:39:07.592Z,29.1
2019-01-03T01:39:57.822Z,29.1
2019-01-03T01:40:47.377Z,29.1
2019-01-03T01:41:38.310Z,29.1
2019-01-03T01:42:28.052Z,29.1
2019-01-03T01:43:18.110Z,29.1
2019-01-03T01:44:07.749Z,29.1
2019-01-03T01:44:57.987Z,29.1
2019-01-03T01:45:47.734Z,29.1
2019-01-03T01:46:38.684Z,29.1
2019-01-03T01:47:28.139Z,29
2019-01-03T01:48:17.646Z,29.1
2019-01-03T01:49:07.689Z,29
2019-01-03T01:49:58.324Z,29
2019-01-03T01:50:48.076Z,29
2019-01-03T01:51:37.794Z,29
2019-01-03T01:52:28.760Z,29
2019-01-03T01:53:18.046Z,29
2019-01-03T01:54:08.326Z,29
2019-01-03T01:54:58.691Z,29
2019-01-03T01:55:49.181Z,29
2019-01-03T01:56:38.469Z,29
2019-01-03T01:57:28.541Z,29
2019-01-03T01:58:18.623Z,29
2019-01-03T01:59:08.455Z,29
2019-01-03T01:59:59.070Z,29
2019-01-03T02:00:49.234Z,28.9
2019-01-03T02:01:39.357Z,29
2019-01-03T02:02:29.433Z,29
2019-01-03T02:03:19.751Z,29
2019-01-03T02:04:09.538Z,29
2019-01-03T02:04:59.915Z,29
2019-01-03T02:05:49.382Z,29
2019-01-03T02:06:38.606Z,28.9
2019-01-03T02:07:29.202Z,29
2019-01-03T02:08:19.078Z,28.9
2019-01-03T02:09:08.885Z,28.9
2019-01-03T02:09:58.942Z,29
2019-01-03T02:10:50.010Z,29
2019-01-03T02:11:39.575Z,28.9
2019-01-03T02:12:30.115Z,28.9
2019-01-03T02:13:19.135Z,28.9
2019-01-03T02:14:09.980Z,28.9
2019-01-03T02:14:58.950Z,28.9
2019-01-03T02:15:49.355Z,28.9
2019-01-03T02:16:39.627Z,28.9
2019-01-03T02:17:29.915Z,28.9
2019-01-03T02:18:19.510Z,28.9
2019-01-03T02:19:10.380Z,28.9
2019-01-03T02:20:00.722Z,28.9
2019-01-03T02:20:50.252Z,28.9
2019-01-03T02:21:40.002Z,28.9
2019-01-03T02:22:29.802Z,28.9
2019-01-03T02:23:20.097Z,28.9
2019-01-03T02:24:11.499Z,28.9
2019-01-03T02:25:00.957Z,28.9
2019-01-03T02:25:50.247Z,28.9
2019-01-03T02:26:40.064Z,28.9
2019-01-03T02:27:30.379Z,28.9
2019-01-03T02:28:21.487Z,28.9
2019-01-03T02:29:11.274Z,28.8
2019-01-03T02:30:01.340Z,28.8
2019-01-03T02:30:51.226Z,28.8
2019-01-03T02:31:41.166Z,28.8
2019-01-03T02:32:31.032Z,28.8
2019-01-03T02:33:22.085Z,28.8
2019-01-03T02:34:11.294Z,28.8
2019-01-03T02:35:02.397Z,28.8
2019-01-03T02:35:51.366Z,28.9
2019-01-03T02:36:42.009Z,28.9
2019-01-03T02:37:31.499Z,28.9
2019-01-03T02:38:21.272Z,29
2019-01-03T02:39:11.386Z,29.1
2019-01-03T02:40:02.441Z,29.1
2019-01-03T02:40:51.785Z,29.2
2019-01-03T02:41:41.315Z,29.3
2019-01-03T02:42:31.870Z,29.3
2019-01-03T02:43:22.215Z,29.4
2019-01-03T02:44:12.533Z,29.5
2019-01-03T02:45:02.393Z,29.6
2019-01-03T02:45:52.688Z,29.7
2019-01-03T02:46:41.338Z,29.8
2019-01-03T02:47:32.776Z,29.8
2019-01-03T02:48:22.271Z,29.9
2019-01-03T02:49:12.888Z,30.1
2019-01-03T02:50:02.378Z,30.1
2019-01-03T02:50:52.747Z,30.3
2019-01-03T02:51:42.735Z,30.3
2019-01-03T02:52:33.634Z,30.4
2019-01-03T02:53:22.928Z,30.5
2019-01-03T02:54:13.015Z,30.6
2019-01-03T02:55:03.806Z,30.8
2019-01-03T02:55:52.830Z,30.8
2019-01-03T02:56:42.638Z,30.9
2019-01-03T02:57:32.680Z,31.1
2019-01-03T02:58:24.439Z,31.1
2019-01-03T02:59:12.499Z,31.3
2019-01-03T03:00:03.557Z,31.4
2019-01-03T03:00:52.915Z,31.4
2019-01-03T03:01:43.583Z,31.6
2019-01-03T03:02:33.290Z,31.7
2019-01-03T03:03:23.834Z,31.8
2019-01-03T03:04:13.148Z,31.9
2019-01-03T03:05:04.022Z,32
2019-01-03T03:05:53.977Z,32.1
2019-01-03T03:06:43.834Z,32.3
2019-01-03T03:07:33.531Z,32.3
2019-01-03T03:08:24.162Z,32.4
2019-01-03T03:09:13.700Z,32.6
2019-01-03T03:10:04.399Z,32.7
2019-01-03T03:10:54.599Z,32.8
2019-01-03T03:11:44.470Z,32.9
2019-01-03T03:12:33.643Z,33
2019-01-03T03:13:24.259Z,33.1
2019-01-03T03:14:14.002Z,33.2
2019-01-03T03:15:04.724Z,33.3
2019-01-03T03:15:55.545Z,33.4
2019-01-03T03:16:45.061Z,33.6
2019-01-03T03:17:33.131Z,33.7
2019-01-03T03:18:24.920Z,33.8
2019-01-03T03:19:14.973Z,33.9
2019-01-03T03:20:05.251Z,34
2019-01-03T03:20:54.293Z,34.1
2019-01-03T03:21:45.206Z,34.3
2019-01-03T03:22:34.916Z,34.4
2019-01-03T03:23:25.483Z,34.4
2019-01-03T03:24:15.285Z,34.6
2019-01-03T03:25:05.651Z,34.7
2019-01-03T03:25:54.521Z,34.8
2019-01-03T03:26:45.935Z,34.9
2019-01-03T03:27:35.745Z,35
2019-01-03T03:28:25.075Z,35.1
2019-01-03T03:29:15.662Z,35.3
2019-01-03T03:30:05.480Z,35.3
2019-01-03T03:30:55.591Z,35.4
2019-01-03T03:31:46.730Z,35.5
2019-01-03T03:32:35.404Z,35.6
2019-01-03T03:33:25.961Z,35.7
2019-01-03T03:34:15.664Z,35.8
2019-01-03T03:35:05.491Z,35.8
2019-01-03T03:35:56.067Z,35.9
2019-01-03T03:36:46.672Z,35.9
2019-01-03T03:37:36.491Z,35.9
2019-01-03T03:38:25.680Z,35.9
2019-01-03T03:39:16.845Z,36
2019-01-03T03:40:05.784Z,36.1
2019-01-03T03:40:56.992Z,36.1
2019-01-03T03:41:47.017Z,36.1
2019-01-03T03:42:36.827Z,36.1
2019-01-03T03:43:25.782Z,36.1
2019-01-03T03:44:16.382Z,36.1
2019-01-03T03:45:06.427Z,36.1
2019-01-03T03:45:57.017Z,36.2
2019-01-03T03:46:47.064Z,36.2
2019-01-03T03:47:37.192Z,36.2
2019-01-03T03:48:27.217Z,36.3
2019-01-03T03:49:15.954Z,36.2
2019-01-03T03:50:07.681Z,36.2
2019-01-03T03:50:56.081Z,36.3
2019-01-03T03:51:47.166Z,36.3
2019-01-03T03:52:36.776Z,36.3
2019-01-03T03:53:27.004Z,36.3
2019-01-03T03:54:16.852Z,36.3
2019-01-03T03:55:07.247Z,36.3
2019-01-03T03:55:57.186Z,36.3
2019-01-03T03:56:47.172Z,36.3
2019-01-03T03:57:36.476Z,36.3
2019-01-03T03:58:27.095Z,36.3
2019-01-03T03:59:17.392Z,36.3
2019-01-03T04:00:06.987Z,36.3
2019-01-03T04:00:57.617Z,36.3
2019-01-03T04:01:47.069Z,36.3
2019-01-03T04:02:37.414Z,36.3
2019-01-03T04:03:27.449Z,36.3
2019-01-03T04:04:17.271Z,36.3
2019-01-03T04:05:08.143Z,36.3
2019-01-03T04:05:57.088Z,36.3
2019-01-03T04:06:48.526Z,36.3
2019-01-03T04:07:37.262Z,36.3
2019-01-03T04:08:28.323Z,36.3
2019-01-03T04:09:18.178Z,36.3
2019-01-03T04:10:08.178Z,36.3
2019-01-03T04:10:58.731Z,36.3
2019-01-03T04:11:48.240Z,36.3
2019-01-03T04:12:37.537Z,36.3
2019-01-03T04:13:28.885Z,36.3
2019-01-03T04:14:18.513Z,36.3
2019-01-03T04:15:08.352Z,36.3
2019-01-03T04:15:58.070Z,36.3
2019-01-03T04:16:48.378Z,36.3
2019-01-03T04:17:38.940Z,36.3
2019-01-03T04:18:29.145Z,36.3
2019-01-03T04:19:18.577Z,36.3
2019-01-03T04:20:08.059Z,36.3
2019-01-03T04:20:59.529Z,36.3
2019-01-03T04:21:49.164Z,36.3
2019-01-03T04:22:39.259Z,36.3
2019-01-03T04:23:29.871Z,36.3
2019-01-03T04:24:19.092Z,36.3
2019-01-03T04:25:24.728Z,36.3
2019-01-03T04:25:59.510Z,36.3
2019-01-03T04:26:49.624Z,36.3
2019-01-03T04:27:39.308Z,36.3
2019-01-03T04:28:29.959Z,36.3
2019-01-03T04:29:19.987Z,36.3
2019-01-03T04:30:09.029Z,36.3
2019-01-03T04:30:59.896Z,36.3
2019-01-03T04:31:50.720Z,36.3
2019-01-03T04:32:39.669Z,36.3
2019-01-03T04:33:29.199Z,36.3
2019-01-03T04:34:19.801Z,36.3
2019-01-03T04:35:10.491Z,36.3
2019-01-03T04:36:00.517Z,36.3
2019-01-03T04:36:50.576Z,36.3
2019-01-03T04:37:40.427Z,36.3
2019-01-03T04:38:30.098Z,36.3
2019-01-03T04:39:19.621Z,36.3
2019-01-03T04:40:09.886Z,36.3
2019-01-03T04:41:00.239Z,36.3
2019-01-03T04:41:50.948Z,36.3
2019-01-03T04:42:39.604Z,36.3
2019-01-03T04:43:30.521Z,36.3
2019-01-03T04:44:20.070Z,36.3
2019-01-03T04:45:10.868Z,36.3
2019-01-03T05:02:29.604Z,36.2
2019-01-03T05:03:19.104Z,36.2
2019-01-03T05:04:09.463Z,36.2
2019-01-03T05:04:59.190Z,36.2
2019-01-03T05:05:48.981Z,36.2
2019-01-03T05:06:38.724Z,36.2
2019-01-03T05:07:29.889Z,36.2
2019-01-03T05:08:19.777Z,36.2
2019-01-03T05:09:09.194Z,36.2
2019-01-03T05:09:59.836Z,36.2
2019-01-03T05:10:49.951Z,36.2
2019-01-03T05:11:39.972Z,36.2
2019-01-03T05:12:30.318Z,36.2
2019-01-03T05:13:20.290Z,36.2
2019-01-03T05:14:09.565Z,36.2
2019-01-03T05:14:59.360Z,36.2
2019-01-03T05:15:50.208Z,36.2
2019-01-03T05:16:39.965Z,36.1
2019-01-03T05:17:29.470Z,36.1
2019-01-03T05:18:19.310Z,36.1
2019-01-03T05:19:09.662Z,36.1
2019-01-03T05:19:59.982Z,36.1
2019-01-03T05:20:49.797Z,36.1
2019-01-03T05:21:40.410Z,36.1
2019-01-03T05:22:29.916Z,36.1
2019-01-03T05:23:20.484Z,36.1
2019-01-03T05:24:10.035Z,36.1
2019-01-03T05:25:00.445Z,36.1
2019-01-03T05:25:50.077Z,36.1
2019-01-03T05:26:39.905Z,36.1
2019-01-03T05:27:30.529Z,36.1
2019-01-03T05:28:20.532Z,36.1
2019-01-03T05:29:11.360Z,36.1
2019-01-03T05:30:02.409Z,36.1
2019-01-03T05:30:50.967Z,36.1
2019-01-03T05:31:39.899Z,36.1
2019-01-03T05:32:31.444Z,36.1
2019-01-03T05:33:20.290Z,36.1
2019-01-03T05:34:11.475Z,36.1
2019-01-03T05:35:01.252Z,36.1
2019-01-03T05:35:51.546Z,36.1
2019-01-03T05:36:41.911Z,36
2019-01-03T05:37:31.675Z,36.1
2019-01-03T05:38:22.013Z,36.1
2019-01-03T05:39:12.055Z,36.1
2019-01-03T05:40:01.214Z,36.1
2019-01-03T05:40:51.915Z,36
2019-01-03T05:41:41.684Z,36.1
2019-01-03T05:42:32.024Z,36
2019-01-03T05:43:22.436Z,36.1
2019-01-03T05:44:12.649Z,36
2019-01-03T05:45:02.220Z,36
2019-01-03T05:45:52.008Z,36
2019-01-03T05:46:41.494Z,36
2019-01-03T05:47:32.495Z,36
2019-01-03T05:48:21.893Z,36
2019-01-03T05:49:12.196Z,36
2019-01-03T05:50:02.334Z,36
2019-01-03T05:50:52.058Z,36
2019-01-03T05:51:42.153Z,35.9
2019-01-03T05:52:31.661Z,36
2019-01-03T05:53:23.678Z,36
2019-01-03T05:54:11.693Z,36
2019-01-03T05:55:02.417Z,35.9
2019-01-03T05:55:52.403Z,35.9
2019-01-03T05:56:42.265Z,35.9
2019-01-03T05:57:32.492Z,35.9
2019-01-03T05:58:22.765Z,35.9
2019-01-03T05:59:12.617Z,35.9
2019-01-03T06:00:03.367Z,35.9
2019-01-03T06:00:52.477Z,35.9
2019-01-03T06:01:43.082Z,35.9
2019-01-03T06:02:33.357Z,35.9
2019-01-03T06:03:22.937Z,35.9
2019-01-03T06:04:13.742Z,35.9
2019-01-03T06:05:03.287Z,35.9
2019-01-03T06:05:53.045Z,35.9
2019-01-03T06:06:43.665Z,35.9
2019-01-03T06:07:33.405Z,35.9
2019-01-03T06:08:23.774Z,35.9
2019-01-03T06:09:13.578Z,35.9
2019-01-03T06:10:04.152Z,35.9
2019-01-03T06:10:53.131Z,35.9
2019-01-03T06:11:43.748Z,35.9
2019-01-03T06:12:33.538Z,35.9
2019-01-03T06:13:24.123Z,35.9
2019-01-03T06:14:14.162Z,35.9
2019-01-03T06:15:05.616Z,35.9
2019-01-03T06:15:53.722Z,35.9
2019-01-03T06:16:44.324Z,35.8
2019-01-03T06:17:34.081Z,35.8
2019-01-03T06:18:23.056Z,35.8
2019-01-03T06:19:13.678Z,35.8
2019-01-03T06:20:04.835Z,35.8
2019-01-03T06:20:54.379Z,35.8
2019-01-03T06:21:44.106Z,35.8
2019-01-03T06:22:34.159Z,35.8
2019-01-03T06:23:24.759Z,35.8
2019-01-03T06:24:14.789Z,35.8
2019-01-03T06:25:05.474Z,35.8
2019-01-03T06:25:55.465Z,35.8
2019-01-03T06:26:44.171Z,35.8
2019-01-03T06:27:34.777Z,35.8
2019-01-03T06:28:24.613Z,35.8
2019-01-03T06:29:14.888Z,35.8
2019-01-03T06:30:05.513Z,35.8
2019-01-03T06:30:54.466Z,35.8
2019-01-03T06:31:45.591Z,35.8
2019-01-03T06:32:35.386Z,35.8
2019-01-03T06:33:24.639Z,35.8
2019-01-03T06:34:14.748Z,35.8
2019-01-03T06:35:05.492Z,35.8
2019-01-03T06:35:56.202Z,35.8
2019-01-03T06:36:44.911Z,35.8
2019-01-03T06:37:33.900Z,35.8
2019-01-03T06:38:25.040Z,35.7
2019-01-03T06:39:14.547Z,35.8
2019-01-03T06:40:05.225Z,35.8
2019-01-03T06:40:54.437Z,35.8
2019-01-03T06:41:45.230Z,35.8
2019-01-03T06:42:35.225Z,35.8
2019-01-03T06:43:25.568Z,35.8
2019-01-03T06:44:16.494Z,35.7
2019-01-03T06:45:06.547Z,35.7
2019-01-03T06:45:56.252Z,35.7
2019-01-03T06:46:45.820Z,35.7
2019-01-03T06:47:35.838Z,35.7
2019-01-03T06:48:26.490Z,35.7
2019-01-03T06:49:15.436Z,35.7
2019-01-03T06:50:05.832Z,35.7
2019-01-03T06:50:56.361Z,35.7
2019-01-03T06:51:46.919Z,35.7
2019-01-03T06:52:35.932Z,35.7
2019-01-03T06:53:26.809Z,35.7
2019-01-03T06:54:16.619Z,35.7
2019-01-03T06:55:06.369Z,35.7
2019-01-03T06:55:56.481Z,35.7
2019-01-03T06:56:47.306Z,35.7
2019-01-03T06:57:37.326Z,35.7
2019-01-03T06:58:26.869Z,35.6
2019-01-03T06:59:16.754Z,35.6
2019-01-03T07:00:06.807Z,35.6
2019-01-03T07:00:56.089Z,35.6
2019-01-03T07:01:46.158Z,35.6
2019-01-03T07:02:37.376Z,35.6
2019-01-03T07:03:26.904Z,35.6
2019-01-03T07:04:17.251Z,35.5
2019-01-03T07:05:06.214Z,35.4
2019-01-03T07:05:57.108Z,35.4
2019-01-03T07:06:47.942Z,35.3
2019-01-03T07:07:37.456Z,35.3
2019-01-03T07:08:27.250Z,35.3
2019-01-03T07:09:18.181Z,35.2
2019-01-03T07:10:07.390Z,35.1
2019-01-03T07:10:57.433Z,35.1
2019-01-03T07:11:47.433Z,35.1
2019-01-03T07:12:37.534Z,35
2019-01-03T07:13:27.593Z,35
2019-01-03T07:14:17.931Z,34.9
2019-01-03T07:15:08.253Z,34.9
2019-01-03T07:15:57.768Z,34.9
2019-01-03T07:16:48.585Z,34.9
2019-01-03T07:17:38.498Z,34.8
2019-01-03T07:18:27.753Z,34.8
2019-01-03T07:19:17.808Z,34.8
2019-01-03T07:20:07.670Z,34.8
2019-01-03T07:20:57.640Z,34.8
2019-01-03T07:21:48.253Z,34.8
2019-01-03T07:22:38.501Z,34.7
2019-01-03T07:23:28.329Z,34.7
2019-01-03T07:24:18.633Z,34.7
2019-01-03T07:25:08.402Z,34.7
2019-01-03T07:25:58.828Z,34.7
2019-01-03T07:26:48.514Z,34.6
2019-01-03T07:27:38.564Z,34.6
2019-01-03T07:28:29.017Z,34.6
2019-01-03T07:29:18.432Z,34.6
2019-01-03T07:30:09.004Z,34.6
2019-01-03T07:30:58.497Z,34.6
2019-01-03T07:31:48.254Z,34.6
2019-01-03T07:32:39.185Z,34.6
2019-01-03T07:33:29.794Z,34.5
2019-01-03T07:34:19.267Z,34.5
2019-01-03T07:35:09.387Z,34.5
2019-01-03T07:35:59.131Z,34.5
2019-01-03T07:36:49.234Z,34.5
2019-01-03T07:37:39.519Z,34.6
2019-01-03T07:38:29.286Z,34.6
2019-01-03T07:39:19.613Z,34.6
2019-01-03T07:40:09.521Z,34.6
2019-01-03T07:41:00.021Z,34.7
2019-01-03T07:41:50.301Z,34.8
2019-01-03T07:42:39.091Z,34.8
2019-01-03T07:43:30.464Z,34.8
2019-01-03T07:44:19.961Z,34.8
2019-01-03T07:45:10.294Z,34.8
2019-01-03T07:45:59.853Z,34.9
2019-01-03T07:46:50.162Z,34.9
2019-01-03T07:47:40.238Z,34.9
2019-01-03T07:48:29.986Z,34.9
2019-01-03T07:49:20.296Z,34.9
2019-01-03T07:50:11.693Z,34.9
2019-01-03T07:51:00.203Z,34.9
2019-01-03T07:51:51.088Z,34.9
2019-01-03T07:52:40.847Z,34.9
2019-01-03T07:53:31.135Z,34.9
2019-01-03T07:54:20.371Z,34.9
2019-01-03T07:55:10.963Z,34.9
2019-01-03T07:56:00.469Z,35
2019-01-03T07:56:50.533Z,35
2019-01-03T07:57:40.059Z,35
2019-01-03T07:58:30.433Z,35
2019-01-03T07:59:21.253Z,35
2019-01-03T08:00:11.080Z,35
2019-01-03T08:01:00.542Z,35
2019-01-03T08:01:50.943Z,35
2019-01-03T08:02:41.255Z,34.9
2019-01-03T08:03:30.788Z,35
2019-01-03T08:04:21.107Z,35
2019-01-03T08:05:10.666Z,35
2019-01-03T08:06:00.978Z,35
2019-01-03T08:06:50.189Z,35.1
2019-01-03T08:07:41.862Z,35.1
2019-01-03T08:08:31.728Z,35.1
2019-01-03T08:09:20.390Z,35.1
2019-01-03T08:10:10.957Z,35.1
2019-01-03T08:11:01.305Z,35.1
2019-01-03T08:11:50.799Z,35.1
2019-01-03T08:12:41.657Z,35.1
2019-01-03T08:13:31.214Z,35.1
2019-01-03T08:14:21.527Z,35.1
2019-01-03T08:15:11.346Z,35.1
2019-01-03T08:16:01.926Z,35.1
2019-01-03T08:16:51.402Z,35.1
2019-01-03T08:17:42.099Z,35.1
2019-01-03T08:18:31.829Z,35.1
2019-01-03T08:19:21.349Z,35.1
2019-01-03T08:20:12.221Z,35.1
2019-01-03T08:21:01.717Z,35.1
2019-01-03T08:21:51.749Z,35.1
2019-01-03T08:22:42.671Z,35.1
2019-01-03T08:23:31.891Z,35.1
2019-01-03T08:24:22.748Z,35.1
2019-01-03T08:25:12.558Z,35.1
2019-01-03T08:26:02.330Z,35.1
2019-01-03T08:26:51.308Z,35.1
2019-01-03T08:27:43.748Z,35.1
2019-01-03T08:28:32.791Z,35.1
2019-01-03T08:29:22.298Z,35.1
2019-01-03T08:30:12.621Z,35.1
2019-01-03T08:31:02.936Z,35.1
2019-01-03T08:31:53.091Z,35.1
2019-01-03T08:32:43.850Z,35.1
2019-01-03T08:33:33.108Z,35.1
2019-01-03T08:34:22.936Z,35.1
2019-01-03T08:35:13.728Z,35.1
2019-01-03T08:36:02.718Z,35
2019-01-03T08:36:52.740Z,35
2019-01-03T08:37:43.603Z,35
2019-01-03T08:38:33.916Z,35.1
2019-01-03T08:39:23.203Z,35
2019-01-03T08:40:13.570Z,35
2019-01-03T08:41:04.095Z,35
2019-01-03T08:41:53.316Z,35
2019-01-03T08:42:43.931Z,35
2019-01-03T08:43:34.030Z,35
2019-01-03T08:44:23.212Z,35
2019-01-03T08:45:14.172Z,35
2019-01-03T08:46:03.622Z,35
2019-01-03T08:46:54.465Z,35.1
2019-01-03T08:47:44.280Z,35.1
2019-01-03T08:48:34.112Z,35.1
2019-01-03T08:49:23.285Z,35
2019-01-03T08:50:13.407Z,35
2019-01-03T08:51:05.295Z,35
2019-01-03T08:51:54.267Z,35
2019-01-03T08:52:44.306Z,35
2019-01-03T08:53:34.962Z,35
2019-01-03T08:54:24.276Z,35
2019-01-03T08:55:13.457Z,35
2019-01-03T08:56:05.117Z,35
2019-01-03T08:56:53.866Z,35
2019-01-03T08:57:44.706Z,35
2019-01-03T08:58:35.249Z,35
2019-01-03T08:59:25.118Z,35
2019-01-03T09:00:15.129Z,35
2019-01-03T09:01:05.044Z,35
2019-01-03T09:16:54.628Z,34.9
2019-01-03T09:17:44.123Z,34.9
2019-01-03T09:18:35.019Z,34.9
2019-01-03T09:19:24.814Z,34.9
2019-01-03T09:20:15.407Z,34.9
2019-01-03T09:21:05.928Z,34.9
2019-01-03T09:21:55.478Z,34.9
2019-01-03T09:22:45.740Z,34.9
2019-01-03T09:23:35.057Z,34.9
2019-01-03T09:24:25.387Z,34.9
2019-01-03T09:25:15.434Z,34.9
2019-01-03T09:26:06.025Z,34.9
2019-01-03T09:26:55.862Z,34.9
2019-01-03T09:27:45.299Z,34.9
2019-01-03T09:28:35.953Z,34.9
2019-01-03T09:29:26.267Z,34.9
2019-01-03T09:30:15.212Z,34.9
2019-01-03T09:31:05.842Z,34.9
2019-01-03T09:31:55.974Z,34.9
2019-01-03T09:32:45.940Z,34.8
2019-01-03T09:33:35.720Z,34.8
2019-01-03T09:34:26.104Z,34.8
2019-01-03T09:35:16.125Z,34.8
2019-01-03T09:36:05.476Z,34.8
2019-01-03T09:36:56.480Z,34.8
2019-01-03T09:37:46.065Z,34.8
2019-01-03T09:38:36.748Z,34.8
2019-01-03T09:39:26.443Z,34.8
2019-01-03T09:40:16.744Z,34.8
2019-01-03T09:41:06.273Z,34.8
2019-01-03T09:41:56.344Z,34.8
2019-01-03T09:42:47.005Z,34.8
2019-01-03T09:43:36.170Z,34.8
2019-01-03T09:44:26.769Z,34.8
2019-01-03T09:45:17.160Z,34.8
2019-01-03T09:46:06.338Z,34.8
2019-01-03T09:46:56.915Z,34.8
2019-01-03T09:47:46.997Z,34.8
2019-01-03T09:48:37.607Z,34.8
2019-01-03T09:49:27.162Z,34.8
2019-01-03T09:50:16.914Z,34.8
2019-01-03T09:51:06.946Z,34.8
2019-01-03T09:51:56.463Z,34.8
2019-01-03T09:52:47.359Z,34.8
2019-01-03T09:53:36.854Z,34.8
2019-01-03T09:54:27.462Z,34.8
2019-01-03T09:55:17.239Z,34.8
2019-01-03T09:56:07.246Z,34.8
2019-01-03T09:56:57.312Z,34.8
2019-01-03T09:57:47.364Z,34.7
2019-01-03T09:58:38.237Z,34.8
2019-01-03T09:59:27.764Z,34.7
2019-01-03T10:00:18.381Z,34.7
2019-01-03T10:01:08.195Z,34.7
2019-01-03T10:01:57.419Z,34.7
2019-01-03T10:02:47.997Z,34.7
2019-01-03T10:03:38.319Z,34.7
2019-01-03T10:04:27.885Z,34.7
2019-01-03T10:05:17.916Z,34.7
2019-01-03T10:06:08.274Z,34.7
2019-01-03T10:06:58.276Z,34.7
2019-01-03T10:07:48.678Z,34.7
2019-01-03T10:08:38.981Z,34.7
2019-01-03T10:09:27.951Z,34.7
2019-01-03T10:10:17.976Z,34.6
2019-01-03T10:11:08.318Z,34.7
2019-01-03T10:11:58.391Z,34.6
2019-01-03T10:12:48.701Z,34.7
2019-01-03T10:13:39.361Z,34.6
2019-01-03T10:14:28.306Z,34.6
2019-01-03T10:15:18.063Z,34.6
2019-01-03T10:16:08.658Z,34.6
2019-01-03T10:16:58.689Z,34.6
2019-01-03T10:17:49.098Z,34.6
2019-01-03T10:18:38.555Z,34.6
2019-01-03T10:19:29.187Z,34.6
2019-01-03T10:20:18.657Z,34.6
2019-01-03T10:21:08.720Z,34.6
2019-01-03T10:21:59.070Z,34.6
2019-01-03T10:22:48.832Z,34.6
2019-01-03T10:23:39.151Z,34.6
2019-01-03T10:24:29.505Z,34.6
2019-01-03T10:25:19.870Z,34.6
2019-01-03T10:26:10.473Z,34.6
2019-01-03T10:26:59.975Z,34.6
2019-01-03T10:27:50.248Z,34.5
2019-01-03T10:28:40.076Z,34.6
2019-01-03T10:29:29.073Z,34.5
2019-01-03T10:30:20.179Z,34.6
2019-01-03T10:31:11.291Z,34.6
2019-01-03T10:31:59.437Z,34.6
2019-01-03T10:32:49.727Z,34.5
2019-01-03T10:33:39.254Z,34.5
2019-01-03T10:34:30.702Z,34.5
2019-01-03T10:35:20.509Z,34.5
2019-01-03T10:36:10.594Z,34.5
2019-01-03T10:37:00.335Z,34.4
2019-01-03T10:37:50.125Z,34.4
2019-01-03T10:38:40.769Z,34.4
2019-01-03T10:39:30.751Z,34.4
2019-01-03T10:40:20.822Z,34.3
2019-01-03T10:41:10.619Z,34.3
2019-01-03T10:42:00.411Z,34.4
2019-01-03T10:42:50.486Z,34.4
2019-01-03T10:43:41.606Z,34.4
2019-01-03T10:44:31.425Z,34.4
2019-01-03T10:45:20.631Z,34.3
2019-01-03T10:46:11.549Z,34.4
2019-01-03T10:47:00.733Z,34.4
2019-01-03T10:47:50.836Z,34.4
2019-01-03T10:48:41.387Z,34.4
2019-01-03T10:49:31.196Z,34.3
2019-01-03T10:50:21.306Z,34.3
2019-01-03T10:51:11.578Z,34.3
2019-01-03T10:52:00.803Z,34.3
2019-01-03T10:52:50.916Z,34.4
2019-01-03T10:53:41.001Z,34.3
2019-01-03T10:54:32.216Z,34.4
2019-01-03T10:55:21.594Z,34.3
2019-01-03T10:56:10.623Z,34.4
2019-01-03T10:57:01.746Z,34.4
2019-01-03T10:57:51.868Z,34.4
2019-01-03T10:58:41.588Z,34.3
2019-01-03T10:59:31.890Z,34.3
2019-01-03T11:00:22.193Z,34.3
2019-01-03T11:01:11.968Z,34.3
2019-01-03T11:02:02.037Z,34.3
2019-01-03T11:02:52.155Z,34.3
2019-01-03T11:03:42.185Z,34.3
2019-01-03T11:04:31.637Z,34.3
2019-01-03T11:05:21.940Z,34.3
2019-01-03T11:06:12.095Z,34.3
2019-01-03T11:07:02.670Z,34.3
2019-01-03T11:07:52.435Z,34.3
2019-01-03T11:08:42.175Z,34.3
2019-01-03T11:09:32.821Z,34.3
2019-01-03T11:10:23.177Z,34.3
2019-01-03T11:11:12.097Z,34.3
2019-01-03T11:12:02.439Z,34.3
2019-01-03T11:12:52.830Z,34.3
2019-01-03T11:13:42.832Z,34.3
2019-01-03T11:14:32.122Z,34.3
2019-01-03T11:15:22.474Z,34.2
2019-01-03T11:16:12.540Z,34.3
2019-01-03T11:17:03.625Z,34.3
2019-01-03T11:17:52.824Z,34.3
2019-01-03T11:18:42.625Z,34.3
2019-01-03T11:19:32.969Z,34.2
2019-01-03T11:20:23.386Z,34.2
2019-01-03T11:21:13.365Z,34.2
2019-01-03T11:22:03.137Z,34.2
2019-01-03T11:22:53.472Z,34.2
2019-01-03T11:23:43.214Z,34.2
2019-01-03T11:24:33.576Z,34.2
2019-01-03T11:25:23.899Z,34.2
2019-01-03T11:26:13.688Z,34.2
2019-01-03T11:27:03.744Z,34.2
2019-01-03T11:27:53.796Z,34.2
2019-01-03T11:28:43.564Z,34.1
2019-01-03T11:29:33.636Z,34.1
2019-01-03T11:30:24.016Z,34.1
2019-01-03T11:31:14.353Z,34.2
2019-01-03T11:32:03.521Z,34.1
2019-01-03T11:32:53.873Z,34.1
2019-01-03T11:33:43.638Z,34.1
2019-01-03T11:34:33.968Z,34.1
2019-01-03T11:35:24.864Z,34.1
2019-01-03T11:36:14.913Z,34.1
2019-01-03T11:37:04.171Z,34.1
2019-01-03T11:37:54.256Z,34.1
2019-01-03T11:38:45.164Z,34.1
2019-01-03T11:39:34.375Z,34.1
2019-01-03T11:40:25.233Z,34.1
2019-01-03T11:41:14.746Z,34
2019-01-03T11:42:04.778Z,34
2019-01-03T11:42:55.108Z,34
2019-01-03T11:43:45.375Z,34
2019-01-03T11:44:35.515Z,33.9
2019-01-03T11:45:23.880Z,33.9
2019-01-03T11:46:15.067Z,33.9
2019-01-03T11:47:05.107Z,33.9
2019-01-03T11:47:54.631Z,33.9
2019-01-03T11:48:45.227Z,33.9
2019-01-03T11:49:34.992Z,33.9
2019-01-03T11:50:25.341Z,33.9
2019-01-03T11:51:16.192Z,33.9
2019-01-03T11:52:05.175Z,33.9
2019-01-03T11:52:55.517Z,33.9
2019-01-03T11:53:46.222Z,33.9
2019-01-03T11:54:35.164Z,33.8
2019-01-03T11:55:25.987Z,33.8
2019-01-03T11:56:15.807Z,33.6
2019-01-03T11:57:05.246Z,33.4
2019-01-03T11:57:56.162Z,33.3
2019-01-03T11:58:45.970Z,33.2
2019-01-03T11:59:35.217Z,33.1
2019-01-03T12:00:25.754Z,33